createdAt,value
2023-08-24T00:00:45.624Z,23.50
2023-08-24T00:03:47.976Z,23.40
2023-08-24T00:06:50.052Z,23.50
2023-08-24T00:09:54.617Z,23.20
2023-08-24T00:12:57.379Z,23.30
2023-08-24T00:15:59.745Z,23.20
2023-08-24T00:19:01.878Z,23.30
2023-08-24T00:22:06.518Z,23.30
2023-08-24T00:25:10.432Z,23.20
2023-08-24T00:28:12.837Z,23.10
2023-08-24T00:31:18.440Z,23.10
2023-08-24T00:34:20.695Z,23.10
2023-08-24T00:37:23.366Z,23.00
2023-08-24T00:40:26.495Z,23.00
2023-08-24T00:43:29.407Z,23.00
2023-08-24T00:46:31.553Z,22.90
2023-08-24T00:49:33.853Z,23.00
2023-08-24T00:52:39.185Z,22.80
2023-08-24T00:55:41.480Z,22.70
2023-08-24T00:58:45.831Z,23.00
2023-08-24T01:01:48.799Z,23.00
2023-08-24T01:04:50.955Z,22.90
2023-08-24T01:07:53.768Z,22.70
2023-08-24T01:10:58.905Z,22.40
2023-08-24T01:14:07.414Z,22.30
2023-08-24T01:17:14.203Z,22.30
2023-08-24T01:20:17.258Z,22.30
2023-08-24T01:23:26.697Z,22.40
2023-08-24T01:26:28.944Z,22.30
2023-08-24T01:29:34.068Z,22.40
2023-08-24T01:32:37.113Z,22.40
2023-08-24T01:35:39.866Z,22.40
2023-08-24T01:38:43.015Z,22.40
2023-08-24T01:41:50.806Z,22.20
2023-08-24T01:44:57.644Z,22.30
2023-08-24T01:48:05.294Z,22.60
2023-08-24T01:51:08.450Z,22.50
2023-08-24T01:54:11.249Z,22.60
2023-08-24T01:57:13.466Z,22.70
2023-08-24T02:00:15.938Z,22.50
2023-08-24T02:03:21.864Z,22.50
2023-08-24T02:06:24.417Z,22.30
2023-08-24T02:09:26.933Z,22.40
2023-08-24T02:12:29.057Z,22.40
2023-08-24T02:15:31.249Z,22.30
2023-08-24T02:18:33.696Z,22.30
2023-08-24T02:21:38.940Z,22.00
2023-08-24T02:24:41.041Z,21.90
2023-08-24T02:27:43.448Z,21.90
2023-08-24T02:30:47.822Z,22.00
2023-08-24T02:33:50.084Z,21.90
2023-08-24T02:36:53.118Z,22.00
2023-08-24T02:39:57.718Z,21.90
2023-08-24T02:42:59.892Z,22.00
2023-08-24T02:46:03.885Z,21.90
2023-08-24T02:49:06.007Z,21.70
2023-08-24T02:52:08.129Z,21.80
2023-08-24T02:55:12.008Z,21.70
2023-08-24T02:58:14.161Z,21.70
2023-08-24T03:01:16.308Z,21.60
2023-08-24T03:04:20.969Z,21.50
2023-08-24T03:07:23.268Z,21.70
2023-08-24T03:10:27.632Z,21.60
2023-08-24T03:13:31.116Z,21.50
2023-08-24T03:16:33.305Z,21.40
2023-08-24T03:19:35.428Z,21.50
2023-08-24T03:22:37.538Z,21.50
2023-08-24T03:25:42.556Z,21.60
2023-08-24T03:28:45.030Z,21.70
2023-08-24T03:31:47.282Z,21.70
2023-08-24T03:34:49.645Z,21.80
2023-08-24T03:37:52.722Z,21.90
2023-08-24T03:41:02.013Z,22.10
2023-08-24T03:44:04.553Z,22.20
2023-08-24T03:47:06.689Z,22.20
2023-08-24T03:50:09.375Z,22.10
2023-08-24T03:53:11.656Z,22.00
2023-08-24T03:56:14.188Z,21.90
2023-08-24T03:59:17.590Z,21.90
2023-08-24T04:02:20.168Z,22.10
2023-08-24T04:05:22.516Z,21.90
2023-08-24T04:08:24.630Z,21.90
2023-08-24T04:11:26.791Z,22.00
2023-08-24T04:14:28.953Z,21.80
2023-08-24T04:17:31.899Z,21.90
2023-08-24T04:20:34.194Z,21.70
2023-08-24T04:23:36.399Z,21.70
2023-08-24T04:26:38.674Z,21.90
2023-08-24T04:29:40.795Z,21.90
2023-08-24T04:32:42.939Z,21.90
2023-08-24T04:35:48.308Z,21.70
2023-08-24T04:38:50.427Z,21.70
2023-08-24T04:41:52.565Z,21.80
2023-08-24T04:44:54.603Z,21.70
2023-08-24T04:47:56.814Z,21.90
2023-08-24T04:51:00.426Z,21.90
2023-08-24T04:54:02.662Z,21.50
2023-08-24T04:57:05.059Z,21.70
2023-08-24T05:00:07.949Z,21.60
2023-08-24T05:03:11.062Z,21.90
2023-08-24T05:06:13.836Z,21.80
2023-08-24T05:09:16.043Z,21.90
2023-08-24T05:12:18.130Z,21.90
2023-08-24T05:15:21.251Z,22.00
2023-08-24T05:18:23.394Z,22.40
2023-08-24T05:21:25.594Z,22.50
2023-08-24T05:24:27.681Z,22.80
2023-08-24T05:27:30.155Z,22.90
2023-08-24T05:30:32.308Z,22.90
2023-08-24T05:33:34.544Z,22.90
2023-08-24T05:36:36.688Z,22.70
2023-08-24T05:39:39.064Z,22.60
2023-08-24T05:42:41.234Z,22.70
2023-08-24T05:45:43.541Z,22.40
2023-08-24T05:48:45.705Z,22.40
2023-08-24T05:51:47.841Z,22.40
2023-08-24T05:54:50.054Z,22.40
2023-08-24T05:57:52.502Z,22.30
2023-08-24T06:01:00.390Z,22.40
2023-08-24T06:04:02.525Z,22.40
2023-08-24T06:07:04.762Z,22.40
2023-08-24T06:10:07.460Z,22.50
2023-08-24T06:13:09.573Z,22.40
2023-08-24T06:16:12.030Z,22.70
2023-08-24T06:19:14.167Z,22.70
2023-08-24T06:22:16.251Z,22.80
2023-08-24T06:25:21.750Z,22.80
2023-08-24T06:28:23.910Z,23.00
2023-08-24T06:31:26.046Z,23.00
2023-08-24T06:34:28.199Z,23.10
2023-08-24T06:37:30.371Z,23.10
2023-08-24T06:40:32.518Z,23.30
2023-08-24T06:43:34.650Z,23.60
2023-08-24T06:46:36.918Z,23.80
2023-08-24T06:49:39.577Z,23.90
2023-08-24T06:52:42.118Z,23.90
2023-08-24T06:55:44.325Z,23.90
2023-08-24T06:58:46.750Z,23.80
2023-08-24T07:01:48.993Z,23.90
2023-08-24T07:04:51.485Z,24.90
2023-08-24T07:07:54.167Z,25.60
2023-08-24T07:10:56.398Z,26.30
2023-08-24T07:13:58.780Z,26.70
2023-08-24T07:17:01.110Z,27.50
2023-08-24T07:20:05.276Z,28.10
2023-08-24T07:23:07.324Z,28.50
2023-08-24T07:26:09.576Z,28.90
2023-08-24T07:29:11.858Z,29.10
2023-08-24T07:32:16.426Z,29.30
2023-08-24T07:35:18.737Z,29.50
2023-08-24T07:38:20.911Z,29.40
2023-08-24T07:41:23.598Z,29.50
2023-08-24T07:44:25.752Z,29.50
2023-08-24T07:47:27.888Z,29.40
2023-08-24T07:50:30.446Z,29.80
2023-08-24T07:53:32.606Z,29.50
2023-08-24T07:56:34.850Z,29.00
2023-08-24T07:59:40.049Z,28.90
2023-08-24T08:02:42.610Z,28.60
2023-08-24T08:05:45.439Z,28.70
2023-08-24T08:08:50.671Z,29.00
2023-08-24T08:11:52.736Z,29.60
2023-08-24T08:14:54.743Z,29.90
2023-08-24T08:17:56.880Z,30.50
2023-08-24T08:20:59.066Z,31.10
2023-08-24T08:24:01.063Z,31.00
2023-08-24T08:27:03.115Z,31.00
2023-08-24T08:30:06.604Z,31.20
2023-08-24T08:33:08.748Z,31.40
2023-08-24T08:36:10.883Z,31.40
2023-08-24T08:39:12.973Z,31.80
2023-08-24T08:42:17.873Z,32.30
2023-08-24T08:45:22.722Z,32.30
2023-08-24T08:48:25.735Z,32.30
2023-08-24T08:51:29.252Z,32.20
2023-08-24T08:54:33.538Z,32.50
2023-08-24T08:57:36.295Z,32.90
2023-08-24T09:00:38.808Z,33.10
2023-08-24T09:03:42.313Z,33.30
2023-08-24T09:06:44.583Z,33.20
2023-08-24T09:09:46.588Z,33.20
2023-08-24T09:12:48.552Z,33.60
2023-08-24T09:15:53.061Z,33.20
2023-08-24T09:18:55.086Z,33.30
2023-08-24T09:22:02.196Z,33.20
2023-08-24T09:25:05.313Z,33.60
2023-08-24T09:28:09.116Z,34.00
2023-08-24T09:31:13.570Z,33.70
2023-08-24T09:34:16.033Z,33.80
2023-08-24T09:37:18.620Z,34.10
2023-08-24T09:40:25.927Z,34.10
2023-08-24T09:43:31.745Z,34.20
2023-08-24T09:46:34.028Z,34.10
2023-08-24T09:49:36.196Z,34.20
2023-08-24T09:52:40.611Z,34.20
2023-08-24T09:55:45.960Z,34.10
2023-08-24T09:58:50.162Z,34.10
2023-08-24T10:01:56.500Z,34.30
2023-08-24T10:04:59.934Z,34.50
2023-08-24T10:08:02.100Z,34.50
2023-08-24T10:11:06.660Z,34.10
2023-08-24T10:14:26.166Z,34.10
2023-08-24T10:17:28.977Z,34.30
2023-08-24T10:20:31.471Z,34.00
2023-08-24T10:23:36.076Z,33.60
2023-08-24T10:26:41.067Z,33.80
2023-08-24T10:29:45.543Z,34.10
2023-08-24T10:32:47.966Z,34.20
2023-08-24T10:35:50.074Z,34.30
2023-08-24T10:38:52.063Z,34.70
2023-08-24T10:41:54.401Z,34.60
2023-08-24T10:44:56.474Z,34.30
2023-08-24T10:47:58.748Z,34.70
2023-08-24T11:03:35.264Z,34.60
2023-08-24T11:07:01.583Z,34.60
2023-08-24T11:10:13.164Z,34.50
2023-08-24T11:13:21.127Z,34.60
2023-08-24T11:16:57.954Z,34.90
2023-08-24T11:20:00.762Z,34.60
2023-08-24T11:23:04.817Z,34.60
2023-08-24T11:26:06.826Z,34.70
2023-08-24T11:29:08.841Z,34.50
2023-08-24T11:32:11.178Z,34.50
2023-08-24T11:35:13.262Z,34.50
2023-08-24T11:38:15.269Z,34.60
2023-08-24T11:41:20.636Z,34.90
2023-08-24T11:44:28.585Z,35.00
2023-08-24T11:47:31.713Z,34.70
2023-08-24T11:50:34.853Z,34.90
2023-08-24T11:53:44.575Z,34.90
2023-08-24T11:56:46.666Z,34.40
2023-08-24T11:59:48.944Z,34.90
2023-08-24T12:02:51.448Z,35.00
2023-08-24T12:05:53.562Z,34.80
2023-08-24T12:08:55.730Z,34.70
2023-08-24T12:11:57.693Z,34.50
2023-08-24T12:14:59.704Z,34.50
2023-08-24T12:18:12.109Z,34.50
2023-08-24T12:21:14.416Z,34.90
2023-08-24T12:24:16.602Z,34.80
2023-08-24T12:27:20.173Z,34.70
2023-08-24T12:30:22.390Z,34.50
2023-08-24T12:33:33.419Z,34.60
2023-08-24T12:36:37.780Z,34.50
2023-08-24T12:39:41.097Z,34.60
2023-08-24T12:42:43.176Z,34.70
2023-08-24T12:45:45.204Z,34.60
2023-08-24T12:48:47.340Z,34.50
2023-08-24T12:51:49.432Z,34.60
2023-08-24T12:54:51.519Z,34.90
2023-08-24T12:57:53.922Z,35.00
2023-08-24T13:00:56.109Z,34.70
2023-08-24T13:03:58.364Z,34.50
2023-08-24T13:07:00.892Z,34.50
2023-08-24T13:10:02.932Z,34.80
2023-08-24T13:13:07.392Z,34.80
2023-08-24T13:16:09.440Z,34.70
2023-08-24T13:19:11.541Z,34.70
2023-08-24T13:22:15.999Z,34.80
2023-08-24T13:25:18.206Z,34.80
2023-08-24T13:28:20.193Z,34.70
2023-08-24T13:31:22.235Z,34.80
2023-08-24T13:34:24.275Z,34.50
2023-08-24T13:37:26.343Z,34.50
2023-08-24T13:40:28.302Z,34.20
2023-08-24T13:43:30.464Z,34.00
2023-08-24T13:46:32.462Z,34.00
2023-08-24T13:49:41.038Z,33.70
2023-08-24T13:52:43.408Z,33.50
2023-08-24T13:55:45.590Z,33.30
2023-08-24T13:58:47.979Z,33.20
2023-08-24T14:01:50.102Z,33.00
2023-08-24T14:04:52.151Z,32.80
2023-08-24T14:07:54.207Z,32.50
2023-08-24T14:11:02.456Z,32.30
2023-08-24T14:14:04.466Z,32.10
2023-08-24T14:17:06.512Z,31.90
2023-08-24T14:20:09.063Z,31.00
2023-08-24T14:23:11.201Z,30.20
2023-08-24T14:26:13.220Z,29.50
2023-08-24T14:29:15.379Z,28.00
2023-08-24T14:32:17.540Z,27.50
2023-08-24T14:35:20.061Z,27.50
2023-08-24T14:38:22.092Z,27.30
2023-08-24T14:41:24.248Z,27.40
2023-08-24T14:44:26.581Z,27.50
2023-08-24T14:47:28.805Z,27.50
2023-08-24T14:50:30.878Z,27.30
2023-08-24T14:53:33.367Z,27.40
2023-08-24T14:56:37.667Z,27.30
2023-08-24T14:59:40.204Z,27.10
2023-08-24T15:02:42.295Z,27.10
2023-08-24T15:05:46.322Z,27.00
2023-08-24T15:08:48.465Z,27.00
2023-08-24T15:11:50.997Z,26.90
2023-08-24T15:15:03.615Z,26.70
2023-08-24T15:18:05.884Z,26.90
2023-08-24T15:21:07.929Z,26.80
2023-08-24T15:24:09.982Z,27.20
2023-08-24T15:27:12.030Z,27.30
2023-08-24T15:30:14.351Z,27.20
2023-08-24T15:33:17.572Z,27.40
2023-08-24T15:36:19.614Z,27.70
2023-08-24T15:39:21.691Z,27.80
2023-08-24T15:42:23.685Z,27.90
2023-08-24T15:45:26.102Z,27.80
2023-08-24T15:48:28.271Z,27.70
2023-08-24T15:51:30.222Z,27.70
2023-08-24T15:54:34.490Z,28.00
2023-08-24T15:57:36.532Z,28.00
2023-08-24T16:00:38.538Z,28.00
2023-08-24T16:03:40.624Z,28.00
2023-08-24T16:06:43.743Z,28.10
2023-08-24T16:09:45.776Z,28.00
2023-08-24T16:12:47.976Z,28.00
2023-08-24T16:15:50.040Z,27.70
2023-08-24T16:18:52.502Z,27.90
2023-08-24T16:21:54.609Z,27.90
2023-08-24T16:24:56.789Z,28.00
2023-08-24T16:28:01.481Z,28.00
2023-08-24T16:31:03.811Z,27.90
2023-08-24T16:34:05.920Z,27.90
2023-08-24T16:37:07.955Z,27.70
2023-08-24T16:40:10.579Z,27.60
2023-08-24T16:43:12.815Z,27.50
2023-08-24T16:46:14.940Z,27.70
2023-08-24T16:49:17.026Z,27.20
2023-08-24T16:52:19.045Z,27.10
2023-08-24T16:55:21.045Z,27.10
2023-08-24T16:58:23.154Z,27.10
2023-08-24T17:01:25.220Z,27.10
2023-08-24T17:04:27.450Z,27.10
2023-08-24T17:07:30.919Z,27.10
2023-08-24T17:10:40.346Z,27.00
2023-08-24T17:13:42.356Z,26.90
2023-08-24T17:16:44.458Z,26.70
2023-08-24T17:19:46.482Z,26.70
2023-08-24T17:22:52.737Z,26.70
2023-08-24T17:25:54.748Z,26.40
2023-08-24T17:28:56.784Z,26.40
2023-08-24T17:31:58.809Z,26.50
2023-08-24T17:35:00.922Z,26.30
2023-08-24T17:38:03.060Z,26.30
2023-08-24T17:41:06.610Z,26.30
2023-08-24T17:44:09.150Z,26.20
2023-08-24T17:47:11.338Z,26.00
2023-08-24T17:50:13.444Z,26.00
2023-08-24T17:53:15.461Z,26.00
2023-08-24T17:56:17.509Z,26.00
2023-08-24T17:59:19.686Z,25.90
2023-08-24T18:02:21.762Z,26.10
2023-08-24T18:05:23.710Z,26.00
2023-08-24T18:08:29.441Z,25.80
2023-08-24T18:11:37.053Z,25.90
2023-08-24T18:14:39.051Z,25.70
2023-08-24T18:17:41.207Z,25.60
2023-08-24T18:20:43.346Z,25.80
2023-08-24T18:23:45.482Z,25.90
2023-08-24T18:26:48.001Z,25.80
2023-08-24T18:29:50.180Z,25.80
2023-08-24T18:32:52.336Z,25.50
2023-08-24T18:35:55.184Z,25.60
2023-08-24T18:38:57.326Z,25.90
2023-08-24T18:41:59.705Z,25.70
2023-08-24T18:45:01.763Z,25.40
2023-08-24T18:48:04.113Z,25.20
2023-08-24T18:51:06.201Z,25.30
2023-08-24T18:54:08.261Z,25.30
2023-08-24T18:57:10.551Z,25.30
2023-08-24T19:00:13.159Z,25.30
2023-08-24T19:03:15.223Z,25.30
2023-08-24T19:06:25.554Z,25.20
2023-08-24T19:09:29.717Z,25.30
2023-08-24T19:12:31.695Z,25.30
2023-08-24T19:15:33.747Z,25.20
2023-08-24T19:18:35.793Z,25.20
2023-08-24T19:21:37.988Z,25.20
2023-08-24T19:24:40.075Z,25.40
2023-08-24T19:27:43.133Z,25.30
2023-08-24T19:30:45.228Z,25.20
2023-08-24T19:33:47.469Z,25.20
2023-08-24T19:36:49.711Z,25.20
2023-08-24T19:39:51.775Z,25.20
2023-08-24T19:42:53.824Z,25.20
2023-08-24T19:45:55.947Z,25.20
2023-08-24T19:48:58.920Z,25.30
2023-08-24T19:52:01.150Z,25.20
2023-08-24T19:55:03.221Z,25.20
2023-08-24T19:58:05.394Z,25.20
2023-08-24T20:01:07.521Z,25.20
2023-08-24T20:04:10.056Z,25.10
2023-08-24T20:07:12.082Z,25.30
2023-08-24T20:10:15.409Z,25.10
2023-08-24T20:13:17.833Z,25.00
2023-08-24T20:16:20.324Z,25.10
2023-08-24T20:19:22.413Z,25.00
2023-08-24T20:22:25.063Z,25.00
2023-08-24T20:25:27.086Z,25.00
2023-08-24T20:28:29.158Z,25.00
2023-08-24T20:31:31.129Z,24.80
2023-08-24T20:34:33.468Z,24.70
2023-08-24T20:37:35.722Z,24.80
2023-08-24T20:40:40.639Z,24.80
2023-08-24T20:43:42.764Z,25.00
2023-08-24T20:46:45.803Z,24.80
2023-08-24T20:49:49.349Z,24.70
2023-08-24T20:52:51.611Z,24.70
2023-08-24T20:55:53.724Z,24.70
2023-08-24T20:58:55.911Z,24.80
2023-08-24T21:02:00.864Z,24.80
2023-08-24T21:05:02.865Z,24.60
2023-08-24T21:08:05.573Z,24.60
2023-08-24T21:11:07.567Z,24.60
2023-08-24T21:14:09.629Z,24.50
2023-08-24T21:17:11.681Z,24.50
2023-08-24T21:20:13.616Z,24.50
2023-08-24T21:23:15.639Z,24.60
2023-08-24T21:26:20.520Z,24.50
2023-08-24T21:29:22.777Z,24.30
2023-08-24T21:32:24.899Z,24.40
2023-08-24T21:35:26.935Z,24.40
2023-08-24T21:38:29.047Z,24.40
2023-08-24T21:41:31.206Z,24.40
2023-08-24T21:44:33.238Z,24.50
2023-08-24T21:47:35.366Z,24.20
2023-08-24T21:50:37.647Z,24.30
2023-08-24T21:53:39.790Z,24.40
2023-08-24T21:56:41.821Z,24.40
2023-08-24T21:59:43.812Z,24.40
2023-08-24T22:02:45.785Z,24.40
2023-08-24T22:05:47.768Z,24.40
2023-08-24T22:08:49.885Z,24.30
2023-08-24T22:11:57.684Z,24.00
2023-08-24T22:14:59.730Z,24.10
2023-08-24T22:18:01.721Z,24.00
2023-08-24T22:21:03.716Z,24.00
2023-08-24T22:24:05.980Z,24.00
2023-08-24T22:27:08.052Z,24.00
2023-08-24T22:30:10.737Z,24.10
2023-08-24T22:33:13.849Z,24.10
2023-08-24T22:36:15.993Z,24.10
2023-08-24T22:39:18.918Z,24.00
2023-08-24T22:42:21.592Z,24.00
2023-08-24T22:45:24.493Z,23.90
2023-08-24T22:48:26.530Z,23.90
2023-08-24T22:51:28.471Z,24.00
2023-08-24T22:54:30.511Z,23.80
2023-08-24T22:57:33.598Z,23.70
2023-08-24T23:00:35.670Z,23.60
2023-08-24T23:03:37.600Z,23.70
2023-08-24T23:07:03.353Z,23.60
2023-08-24T23:10:05.736Z,23.50
2023-08-24T23:13:07.749Z,23.50
2023-08-24T23:16:09.822Z,23.40
2023-08-24T23:19:12.487Z,23.50
2023-08-24T23:22:14.652Z,23.50
2023-08-24T23:25:16.742Z,23.30
2023-08-24T23:28:18.742Z,23.50
2023-08-24T23:31:20.854Z,23.40
2023-08-24T23:34:22.913Z,23.30
2023-08-24T23:37:27.962Z,23.40
2023-08-24T23:40:29.979Z,23.40
2023-08-24T23:43:32.478Z,23.40
2023-08-24T23:46:34.522Z,23.40
2023-08-24T23:49:36.852Z,23.40
2023-08-24T23:52:38.898Z,23.30
2023-08-24T23:55:42.438Z,23.40
2023-08-24T23:58:44.352Z,23.50
